x

Folly Island, Sc (fbis1) Weather Station

5:00pm - Fri 28th Nov 2014 All times are EST. -5 hours from GMT.

  • Wind
    6mph, 8mph gusts
  • Air Temp 46°f
  • Sea Pressure 1027.2mb
  • Folly Island, Sc
  • Folly Island, Sc

More Historic Weather Station data

Upgrade to MSW Pro to gain access to the past 30 days of data for over 8000 Wavebouys and Weather Stations around the globe.

Join Pro

Comparision Forecast

View Surf forecast
   
Fri 11/28 5:00pm 6 8 mph 1027.2mb 46f
4:00pm 6 8 mph 1027.2mb 48f
3:00pm 2 3 mph 1026.8mb 48f
2:00pm 5 6 mph 1027.2mb 47f
1:00pm 5 7 mph 1027.9mb 47f
12:00pm 7 9 mph 1028.9mb 45f
11:00am 10 15 mph 1029.8mb 43f
10:00am 15 21 mph 1029.3mb 42f
9:00am 20 24 mph 1029.3mb 40f
8:00am 21 25 mph 1028.5mb 38f
7:00am 16 21 mph 1028.1mb 38f
6:00am 13 17 mph 1027.8mb 40f
5:00am 11 15 mph 1027mb 40f
4:00am 6 7 mph 1026.6mb 39f
3:00am 6 8 mph 1026.7mb 41f
2:00am 6 8 mph 1025.9mb 42f
1:00am 10 14 mph 1025.7mb 43f
12:00am 8 11 mph 1026mb 43f
Thu 11/27 11:00pm 7 15 mph 1025.4mb 44f
10:00pm 7 11 mph 1025.4mb 44f
9:00pm 5 6 mph 1024.9mb 44f
8:00pm 5 7 mph 1024.3mb 45f
7:00pm 5 6 mph 1023.8mb 46f
6:00pm 3 5 mph 1023.1mb 48f
5:00pm 9 14 mph 1022mb 52f
4:00pm 10 17 mph 1021.2mb 54f
3:00pm 9 15 mph 1020.4mb 55f
2:00pm 15 25 mph 1019.9mb 55f
1:00pm 14 18 mph 1020.1mb 54f
12:00pm 14 20 mph 1020.4mb 53f
11:00am 13 20 mph 1020.7mb 53f
10:00am 13 21 mph 1020.9mb 52f
9:00am 13 17 mph 1020.9mb 50f
8:00am 11 15 mph 1020.3mb 48f
7:00am 9 11 mph 1020mb 48f
6:00am 11 17 mph 1019.5mb 51f
5:00am 8 13 mph 1019.3mb 51f
4:00am 8 10 mph 1019.6mb 49f
3:00am 8 11 mph 1020.4mb 49f
2:00am 7 9 mph 1020.4mb 48f
1:00am 6 8 mph 1020.7mb 49f
12:00am 8 11 mph 1020.9mb 50f
Wed 11/26 11:00pm 6 8 mph 1020.4mb 52f
10:00pm 7 8 mph 1020.3mb 53f
9:00pm 7 9 mph 1019.8mb 53f
8:00pm 6 7 mph 1019.6mb 52f
7:00pm 6 7 mph 1019.5mb 52f
6:00pm 5 6 mph 1019mb 53f
5:00pm 3 6 mph 1018.5mb 55f
4:00pm 8 13 mph 1017.8mb 56f
3:00pm 6 10 mph 1017.1mb 55f
2:00pm 9 16 mph 1016.7mb 53f
1:00pm 9 14 mph 1016.1mb 53f
12:00pm 8 10 mph 1015.9mb 52f
11:00am 10 14 mph 1016.3mb 53f
10:00am 13 17 mph 1014.3mb 53f
9:00am 10 18 mph 1014.4mb 52f
8:00am 11 18 mph 1012.9mb 52f
7:00am 11 18 mph 1010.8mb 55f
6:00am 10 18 mph 1009.7mb 58f
5:00am 9 13 mph 1009.4mb 59f
4:00am 8 11 mph 1008.8mb 60f
3:00am 5 6 mph 1008.3mb 62f
2:00am 7 8 mph 1009.4mb 62f
1:00am 7 9 mph 1009.9mb 62f
12:00am 5 7 mph 1011.2mb 62f
Tue 11/25 11:00pm 13 15 mph 1012.8mb 61f
10:00pm 14 18 mph 1014.1mb 61f
9:00pm 13 14 mph 1015.7mb 60f
8:00pm 13 14 mph 1016.9mb 60f
7:00pm 5 6 mph 1017.2mb 60f
6:00pm 6
mph
1017.1mb 60f
5:00pm 3 5 mph 1016.1mb 61f
4:00pm 3
mph
1015.6mb 61f
3:00pm 2 3 mph 1015.8mb 61f
2:00pm  -  1 mph 1016.5mb 61f
1:00pm 3 5 mph 1016.6mb 63f
12:00pm 5 7 mph 1018.2mb 61f
11:00am 6 7 mph 1019.3mb 60f
10:00am 3
mph
1019.4mb 60f
9:00am 5 6 mph 1019mb 60f
8:00am  -  1 mph 1018.6mb 61f
7:00am  -  2 mph 1017.4mb 60f
6:00am 6
mph
1017.4mb 60f
5:00am 2
mph
1016.4mb 60f
4:00am 3 5 mph 1015.8mb 60f
3:00am  -  2 mph 1015.3mb 61f
2:00am  -  1 mph 1014mb 62f
1:00am 5 6 mph 1015.3mb 64f
12:00am 8 10 mph 1016.7mb 64f